Terminal Aerodrome Forecast
Issued by NWS El Paso, TX

Home | Current Version | Previous Version | Text Only | Print | Product List | Glossary On
Versions: 1 2 3 4 5 6 7 8 9 10 11 12 13
729
FTUS44 KEPZ 252320
TAFELP
TAF
KELP 252320Z 2600/2624 22012G22KT P6SM FEW250
     FM260300 27012KT P6SM SCT250
      TEMPO 2603/2607 27018G28KT
     FM261700 27018G28KT P6SM SKC=

USA.gov is the U.S. government's official web portal to all federal, state and local government web resources and services.